sensor_id;sensor_type;location;lat;lon;timestamp;P1;durP1;ratioP1;P2;durP2;ratioP2
21101;SDS011;10709;49.006;12.100;2023-04-25T00:01:54;4.13;;;2.17;;
21101;SDS011;10709;49.006;12.100;2023-04-25T00:04:20;3.90;;;2.73;;
21101;SDS011;10709;49.006;12.100;2023-04-25T00:06:48;3.10;;;2.40;;
21101;SDS011;10709;49.006;12.100;2023-04-25T00:09:14;2.60;;;2.30;;
21101;SDS011;10709;49.006;12.100;2023-04-25T00:11:41;2.33;;;2.13;;
21101;SDS011;10709;49.006;12.100;2023-04-25T00:14:08;3.10;;;2.60;;
21101;SDS011;10709;49.006;12.100;2023-04-25T00:16:34;2.97;;;2.37;;
21101;SDS011;10709;49.006;12.100;2023-04-25T00:19:01;5.57;;;2.90;;
21101;SDS011;10709;49.006;12.100;2023-04-25T00:21:29;3.10;;;2.33;;
21101;SDS011;10709;49.006;12.100;2023-04-25T00:23:57;3.67;;;2.80;;
21101;SDS011;10709;49.006;12.100;2023-04-25T00:26:24;3.40;;;2.40;;
21101;SDS011;10709;49.006;12.100;2023-04-25T00:28:51;2.90;;;2.67;;
21101;SDS011;10709;49.006;12.100;2023-04-25T00:31:17;3.97;;;2.80;;
21101;SDS011;10709;49.006;12.100;2023-04-25T00:33:44;3.23;;;2.87;;
21101;SDS011;10709;49.006;12.100;2023-04-25T00:36:10;3.60;;;2.97;;
21101;SDS011;10709;49.006;12.100;2023-04-25T00:38:37;4.90;;;3.10;;
21101;SDS011;10709;49.006;12.100;2023-04-25T00:41:05;4.60;;;3.00;;
21101;SDS011;10709;49.006;12.100;2023-04-25T00:43:32;3.17;;;2.87;;
21101;SDS011;10709;49.006;12.100;2023-04-25T00:46:00;3.53;;;3.20;;
21101;SDS011;10709;49.006;12.100;2023-04-25T00:48:27;4.07;;;3.00;;
21101;SDS011;10709;49.006;12.100;2023-04-25T00:50:54;3.73;;;3.30;;
21101;SDS011;10709;49.006;12.100;2023-04-25T00:53:23;3.43;;;3.13;;
21101;SDS011;10709;49.006;12.100;2023-04-25T00:55:51;4.57;;;3.17;;
21101;SDS011;10709;49.006;12.100;2023-04-25T00:58:19;3.47;;;3.03;;
21101;SDS011;10709;49.006;12.100;2023-04-25T01:00:47;3.97;;;3.40;;
21101;SDS011;10709;49.006;12.100;2023-04-25T01:03:15;4.20;;;3.10;;
21101;SDS011;10709;49.006;12.100;2023-04-25T01:05:43;3.93;;;3.20;;
21101;SDS011;10709;49.006;12.100;2023-04-25T01:08:10;3.60;;;3.10;;
21101;SDS011;10709;49.006;12.100;2023-04-25T01:10:37;3.63;;;2.97;;
21101;SDS011;10709;49.006;12.100;2023-04-25T01:13:03;3.70;;;3.37;;
21101;SDS011;10709;49.006;12.100;2023-04-25T01:15:30;3.70;;;3.27;;
21101;SDS011;10709;49.006;12.100;2023-04-25T01:17:57;3.53;;;2.90;;
21101;SDS011;10709;49.006;12.100;2023-04-25T01:20:24;4.97;;;3.07;;
21101;SDS011;10709;49.006;12.100;2023-04-25T01:22:52;3.00;;;2.70;;
21101;SDS011;10709;49.006;12.100;2023-04-25T01:25:20;5.73;;;2.77;;
21101;SDS011;10709;49.006;12.100;2023-04-25T01:27:47;3.27;;;2.97;;
21101;SDS011;10709;49.006;12.100;2023-04-25T01:30:13;4.00;;;2.87;;
21101;SDS011;10709;49.006;12.100;2023-04-25T01:32:41;4.10;;;2.87;;
21101;SDS011;10709;49.006;12.100;2023-04-25T01:35:09;6.97;;;3.20;;
21101;SDS011;10709;49.006;12.100;2023-04-25T01:37:38;3.70;;;3.13;;
21101;SDS011;10709;49.006;12.100;2023-04-25T01:40:06;3.80;;;3.40;;
21101;SDS011;10709;49.006;12.100;2023-04-25T01:42:34;3.50;;;2.90;;
21101;SDS011;10709;49.006;12.100;2023-04-25T01:45:01;3.23;;;2.93;;
21101;SDS011;10709;49.006;12.100;2023-04-25T01:47:28;3.30;;;3.00;;
21101;SDS011;10709;49.006;12.100;2023-04-25T01:49:58;3.37;;;2.90;;
21101;SDS011;10709;49.006;12.100;2023-04-25T01:52:24;3.37;;;3.07;;
21101;SDS011;10709;49.006;12.100;2023-04-25T01:54:50;4.17;;;3.07;;
21101;SDS011;10709;49.006;12.100;2023-04-25T01:57:18;4.87;;;3.47;;
21101;SDS011;10709;49.006;12.100;2023-04-25T01:59:45;4.97;;;2.90;;
21101;SDS011;10709;49.006;12.100;2023-04-25T02:02:12;3.77;;;2.93;;
21101;SDS011;10709;49.006;12.100;2023-04-25T02:04:39;4.90;;;3.40;;
21101;SDS011;10709;49.006;12.100;2023-04-25T02:07:06;3.83;;;3.30;;
21101;SDS011;10709;49.006;12.100;2023-04-25T02:09:33;3.80;;;3.40;;
21101;SDS011;10709;49.006;12.100;2023-04-25T02:11:59;4.13;;;3.40;;
21101;SDS011;10709;49.006;12.100;2023-04-25T02:14:26;5.50;;;3.60;;
21101;SDS011;10709;49.006;12.100;2023-04-25T02:16:52;3.67;;;3.20;;
21101;SDS011;10709;49.006;12.100;2023-04-25T02:19:19;4.47;;;3.60;;
21101;SDS011;10709;49.006;12.100;2023-04-25T02:21:46;4.00;;;3.53;;
21101;SDS011;10709;49.006;12.100;2023-04-25T02:24:12;4.43;;;3.40;;
21101;SDS011;10709;49.006;12.100;2023-04-25T02:26:39;3.57;;;3.20;;
21101;SDS011;10709;49.006;12.100;2023-04-25T02:29:05;3.27;;;2.97;;
21101;SDS011;10709;49.006;12.100;2023-04-25T02:31:31;4.50;;;3.70;;
21101;SDS011;10709;49.006;12.100;2023-04-25T02:33:58;3.30;;;3.00;;
21101;SDS011;10709;49.006;12.100;2023-04-25T02:36:24;3.90;;;3.33;;
21101;SDS011;10709;49.006;12.100;2023-04-25T02:38:52;4.97;;;4.00;;
21101;SDS011;10709;49.006;12.100;2023-04-25T02:41:19;4.40;;;3.20;;
21101;SDS011;10709;49.006;12.100;2023-04-25T02:43:47;3.23;;;2.93;;
21101;SDS011;10709;49.006;12.100;2023-04-25T02:46:14;3.57;;;2.87;;
21101;SDS011;10709;49.006;12.100;2023-04-25T02:48:48;4.43;;;3.40;;
21101;SDS011;10709;49.006;12.100;2023-04-25T02:51:14;3.40;;;3.00;;
21101;SDS011;10709;49.006;12.100;2023-04-25T02:53:42;4.23;;;3.43;;
21101;SDS011;10709;49.006;12.100;2023-04-25T02:56:08;3.60;;;3.17;;
21101;SDS011;10709;49.006;12.100;2023-04-25T02:58:35;4.47;;;3.20;;
21101;SDS011;10709;49.006;12.100;2023-04-25T03:01:02;3.47;;;3.10;;
21101;SDS011;10709;49.006;12.100;2023-04-25T03:03:28;3.80;;;3.30;;
21101;SDS011;10709;49.006;12.100;2023-04-25T03:05:55;3.60;;;3.30;;
21101;SDS011;10709;49.006;12.100;2023-04-25T03:08:21;3.63;;;3.20;;
21101;SDS011;10709;49.006;12.100;2023-04-25T03:10:48;3.73;;;3.10;;
21101;SDS011;10709;49.006;12.100;2023-04-25T03:13:17;4.13;;;3.30;;
21101;SDS011;10709;49.006;12.100;2023-04-25T03:15:43;3.77;;;3.43;;
21101;SDS011;10709;49.006;12.100;2023-04-25T03:18:10;4.17;;;3.30;;
21101;SDS011;10709;49.006;12.100;2023-04-25T03:20:36;4.40;;;3.30;;
21101;SDS011;10709;49.006;12.100;2023-04-25T03:23:05;4.37;;;3.20;;
21101;SDS011;10709;49.006;12.100;2023-04-25T03:25:31;4.30;;;3.17;;
21101;SDS011;10709;49.006;12.100;2023-04-25T03:27:58;4.07;;;3.10;;
21101;SDS011;10709;49.006;12.100;2023-04-25T03:30:24;4.57;;;3.50;;
21101;SDS011;10709;49.006;12.100;2023-04-25T03:32:51;4.03;;;3.33;;
21101;SDS011;10709;49.006;12.100;2023-04-25T03:35:17;4.03;;;3.17;;
21101;SDS011;10709;49.006;12.100;2023-04-25T03:37:43;3.50;;;3.13;;
21101;SDS011;10709;49.006;12.100;2023-04-25T03:40:13;4.40;;;3.67;;
21101;SDS011;10709;49.006;12.100;2023-04-25T03:42:39;4.63;;;3.37;;
21101;SDS011;10709;49.006;12.100;2023-04-25T03:45:09;5.47;;;3.47;;
21101;SDS011;10709;49.006;12.100;2023-04-25T03:47:35;3.83;;;3.10;;
21101;SDS011;10709;49.006;12.100;2023-04-25T03:50:02;4.53;;;3.30;;
21101;SDS011;10709;49.006;12.100;2023-04-25T03:52:28;3.83;;;2.90;;
21101;SDS011;10709;49.006;12.100;2023-04-25T03:54:55;3.30;;;2.90;;
21101;SDS011;10709;49.006;12.100;2023-04-25T03:57:22;4.60;;;3.13;;
21101;SDS011;10709;49.006;12.100;2023-04-25T03:59:48;5.00;;;3.17;;
21101;SDS011;10709;49.006;12.100;2023-04-25T04:02:15;4.63;;;3.00;;
21101;SDS011;10709;49.006;12.100;2023-04-25T04:04:41;5.07;;;3.00;;
21101;SDS011;10709;49.006;12.100;2023-04-25T04:07:10;5.00;;;3.40;;
21101;SDS011;10709;49.006;12.100;2023-04-25T04:09:37;4.23;;;3.00;;
21101;SDS011;10709;49.006;12.100;2023-04-25T04:12:03;5.10;;;3.07;;
21101;SDS011;10709;49.006;12.100;2023-04-25T04:14:29;4.00;;;3.03;;
21101;SDS011;10709;49.006;12.100;2023-04-25T04:16:56;3.77;;;2.90;;
21101;SDS011;10709;49.006;12.100;2023-04-25T04:19:22;4.03;;;2.83;;
21101;SDS011;10709;49.006;12.100;2023-04-25T04:21:49;4.43;;;2.90;;
21101;SDS011;10709;49.006;12.100;2023-04-25T04:24:15;4.37;;;3.00;;
21101;SDS011;10709;49.006;12.100;2023-04-25T04:26:42;3.80;;;3.10;;
21101;SDS011;10709;49.006;12.100;2023-04-25T04:29:11;4.70;;;3.10;;
21101;SDS011;10709;49.006;12.100;2023-04-25T04:31:37;3.17;;;2.80;;
21101;SDS011;10709;49.006;12.100;2023-04-25T04:34:04;5.13;;;3.17;;
21101;SDS011;10709;49.006;12.100;2023-04-25T04:36:30;3.60;;;3.10;;
21101;SDS011;10709;49.006;12.100;2023-04-25T04:38:57;4.87;;;3.20;;
21101;SDS011;10709;49.006;12.100;2023-04-25T04:41:23;4.07;;;3.40;;
21101;SDS011;10709;49.006;12.100;2023-04-25T04:43:50;3.83;;;3.37;;
21101;SDS011;10709;49.006;12.100;2023-04-25T04:46:17;5.10;;;3.20;;
21101;SDS011;10709;49.006;12.100;2023-04-25T04:48:44;3.73;;;3.07;;
21101;SDS011;10709;49.006;12.100;2023-04-25T04:51:11;4.07;;;3.07;;
21101;SDS011;10709;49.006;12.100;2023-04-25T04:53:38;5.23;;;3.63;;
21101;SDS011;10709;49.006;12.100;2023-04-25T04:56:04;4.20;;;3.70;;
21101;SDS011;10709;49.006;12.100;2023-04-25T04:58:31;5.87;;;3.77;;
21101;SDS011;10709;49.006;12.100;2023-04-25T05:00:57;5.20;;;3.93;;
21101;SDS011;10709;49.006;12.100;2023-04-25T05:03:24;4.83;;;4.03;;
21101;SDS011;10709;49.006;12.100;2023-04-25T05:05:51;5.33;;;4.20;;
21101;SDS011;10709;49.006;12.100;2023-04-25T05:08:17;5.67;;;4.70;;
21101;SDS011;10709;49.006;12.100;2023-04-25T05:10:44;5.83;;;4.07;;
21101;SDS011;10709;49.006;12.100;2023-04-25T05:13:10;4.90;;;4.33;;
21101;SDS011;10709;49.006;12.100;2023-04-25T05:15:37;6.07;;;4.47;;
21101;SDS011;10709;49.006;12.100;2023-04-25T05:18:03;6.20;;;4.80;;
21101;SDS011;10709;49.006;12.100;2023-04-25T05:20:30;6.97;;;4.90;;
21101;SDS011;10709;49.006;12.100;2023-04-25T05:22:57;5.10;;;4.60;;
21101;SDS011;10709;49.006;12.100;2023-04-25T05:25:23;6.43;;;4.50;;
21101;SDS011;10709;49.006;12.100;2023-04-25T05:27:50;6.30;;;4.67;;
21101;SDS011;10709;49.006;12.100;2023-04-25T05:30:18;6.17;;;5.03;;
21101;SDS011;10709;49.006;12.100;2023-04-25T05:32:45;6.80;;;4.40;;
21101;SDS011;10709;49.006;12.100;2023-04-25T05:35:13;5.83;;;4.10;;
21101;SDS011;10709;49.006;12.100;2023-04-25T05:37:39;8.30;;;4.37;;
21101;SDS011;10709;49.006;12.100;2023-04-25T05:40:06;8.70;;;4.50;;
21101;SDS011;10709;49.006;12.100;2023-04-25T05:42:33;4.73;;;4.20;;
21101;SDS011;10709;49.006;12.100;2023-04-25T05:45:00;5.80;;;4.40;;
21101;SDS011;10709;49.006;12.100;2023-04-25T05:47:27;6.33;;;4.23;;
21101;SDS011;10709;49.006;12.100;2023-04-25T05:49:53;4.93;;;3.77;;
21101;SDS011;10709;49.006;12.100;2023-04-25T05:52:20;5.17;;;4.17;;
21101;SDS011;10709;49.006;12.100;2023-04-25T05:54:46;4.93;;;4.17;;
21101;SDS011;10709;49.006;12.100;2023-04-25T05:57:23;6.30;;;3.80;;
21101;SDS011;10709;49.006;12.100;2023-04-25T05:59:51;4.50;;;3.90;;
21101;SDS011;10709;49.006;12.100;2023-04-25T06:02:18;5.77;;;4.00;;
21101;SDS011;10709;49.006;12.100;2023-04-25T06:04:48;4.60;;;4.13;;
21101;SDS011;10709;49.006;12.100;2023-04-25T06:07:17;6.17;;;4.00;;
21101;SDS011;10709;49.006;12.100;2023-04-25T06:09:44;4.00;;;3.60;;
21101;SDS011;10709;49.006;12.100;2023-04-25T06:12:11;4.20;;;3.47;;
21101;SDS011;10709;49.006;12.100;2023-04-25T06:14:37;4.40;;;3.40;;
21101;SDS011;10709;49.006;12.100;2023-04-25T06:17:04;4.30;;;3.40;;
21101;SDS011;10709;49.006;12.100;2023-04-25T06:19:35;4.93;;;3.57;;
21101;SDS011;10709;49.006;12.100;2023-04-25T06:22:02;4.87;;;3.40;;
21101;SDS011;10709;49.006;12.100;2023-04-25T06:24:28;7.80;;;3.00;;
21101;SDS011;10709;49.006;12.100;2023-04-25T06:26:55;4.77;;;3.10;;
21101;SDS011;10709;49.006;12.100;2023-04-25T06:29:21;4.47;;;2.80;;
21101;SDS011;10709;49.006;12.100;2023-04-25T06:31:47;3.50;;;3.07;;
21101;SDS011;10709;49.006;12.100;2023-04-25T06:34:14;3.23;;;2.60;;
21101;SDS011;10709;49.006;12.100;2023-04-25T06:36:41;4.97;;;3.10;;
21101;SDS011;10709;49.006;12.100;2023-04-25T06:39:07;8.10;;;3.00;;
21101;SDS011;10709;49.006;12.100;2023-04-25T06:41:35;3.57;;;2.90;;
21101;SDS011;10709;49.006;12.100;2023-04-25T06:44:01;5.27;;;3.10;;
21101;SDS011;10709;49.006;12.100;2023-04-25T06:46:28;5.77;;;2.83;;
21101;SDS011;10709;49.006;12.100;2023-04-25T06:48:54;4.23;;;2.83;;
21101;SDS011;10709;49.006;12.100;2023-04-25T06:51:21;7.47;;;3.33;;
21101;SDS011;10709;49.006;12.100;2023-04-25T06:53:49;4.20;;;2.67;;
21101;SDS011;10709;49.006;12.100;2023-04-25T06:56:16;3.30;;;2.33;;
21101;SDS011;10709;49.006;12.100;2023-04-25T06:58:42;4.47;;;2.97;;
21101;SDS011;10709;49.006;12.100;2023-04-25T07:01:10;4.83;;;3.00;;
21101;SDS011;10709;49.006;12.100;2023-04-25T07:03:36;3.73;;;2.70;;
21101;SDS011;10709;49.006;12.100;2023-04-25T07:06:04;3.20;;;2.90;;
21101;SDS011;10709;49.006;12.100;2023-04-25T07:08:30;6.27;;;3.23;;
21101;SDS011;10709;49.006;12.100;2023-04-25T07:10:57;4.70;;;2.70;;
21101;SDS011;10709;49.006;12.100;2023-04-25T07:13:23;3.70;;;3.07;;
21101;SDS011;10709;49.006;12.100;2023-04-25T07:15:50;5.10;;;3.20;;
21101;SDS011;10709;49.006;12.100;2023-04-25T07:18:16;3.13;;;2.63;;
21101;SDS011;10709;49.006;12.100;2023-04-25T07:20:43;3.07;;;2.77;;
21101;SDS011;10709;49.006;12.100;2023-04-25T07:23:09;3.40;;;2.70;;
21101;SDS011;10709;49.006;12.100;2023-04-25T07:25:36;3.10;;;2.80;;
21101;SDS011;10709;49.006;12.100;2023-04-25T07:28:03;3.50;;;3.00;;
21101;SDS011;10709;49.006;12.100;2023-04-25T07:30:29;4.57;;;2.93;;
21101;SDS011;10709;49.006;12.100;2023-04-25T07:32:56;4.33;;;3.30;;
21101;SDS011;10709;49.006;12.100;2023-04-25T07:35:22;4.90;;;2.90;;
21101;SDS011;10709;49.006;12.100;2023-04-25T07:37:49;4.63;;;2.70;;
21101;SDS011;10709;49.006;12.100;2023-04-25T07:40:15;4.10;;;2.90;;
21101;SDS011;10709;49.006;12.100;2023-04-25T07:42:42;5.33;;;3.17;;
21101;SDS011;10709;49.006;12.100;2023-04-25T07:45:09;3.27;;;2.60;;
21101;SDS011;10709;49.006;12.100;2023-04-25T07:47:36;4.07;;;2.80;;
21101;SDS011;10709;49.006;12.100;2023-04-25T07:50:03;6.57;;;3.10;;
21101;SDS011;10709;49.006;12.100;2023-04-25T07:52:29;6.07;;;3.20;;
21101;SDS011;10709;49.006;12.100;2023-04-25T07:54:56;4.13;;;3.07;;
21101;SDS011;10709;49.006;12.100;2023-04-25T07:57:23;3.80;;;3.13;;
21101;SDS011;10709;49.006;12.100;2023-04-25T07:59:50;4.53;;;3.03;;
21101;SDS011;10709;49.006;12.100;2023-04-25T08:02:16;8.27;;;3.33;;
21101;SDS011;10709;49.006;12.100;2023-04-25T08:04:43;3.53;;;3.03;;
21101;SDS011;10709;49.006;12.100;2023-04-25T08:07:10;3.90;;;3.07;;
21101;SDS011;10709;49.006;12.100;2023-04-25T08:09:36;5.53;;;3.17;;
21101;SDS011;10709;49.006;12.100;2023-04-25T08:12:03;5.00;;;2.90;;
21101;SDS011;10709;49.006;12.100;2023-04-25T08:14:30;3.67;;;2.80;;
21101;SDS011;10709;49.006;12.100;2023-04-25T08:17:02;2.90;;;2.60;;
21101;SDS011;10709;49.006;12.100;2023-04-25T08:19:29;5.17;;;2.77;;
21101;SDS011;10709;49.006;12.100;2023-04-25T08:21:56;4.53;;;3.03;;
21101;SDS011;10709;49.006;12.100;2023-04-25T08:24:23;5.37;;;3.00;;
21101;SDS011;10709;49.006;12.100;2023-04-25T08:26:50;3.57;;;2.60;;
21101;SDS011;10709;49.006;12.100;2023-04-25T08:29:17;5.63;;;2.83;;
21101;SDS011;10709;49.006;12.100;2023-04-25T08:31:43;3.47;;;2.53;;
21101;SDS011;10709;49.006;12.100;2023-04-25T08:34:10;3.47;;;2.50;;
21101;SDS011;10709;49.006;12.100;2023-04-25T08:36:37;3.40;;;2.60;;
21101;SDS011;10709;49.006;12.100;2023-04-25T08:46:04;4.30;;;2.87;;
21101;SDS011;10709;49.006;12.100;2023-04-25T08:48:32;3.80;;;2.80;;
21101;SDS011;10709;49.006;12.100;2023-04-25T08:51:02;3.83;;;2.40;;
21101;SDS011;10709;49.006;12.100;2023-04-25T08:53:33;3.13;;;2.60;;
21101;SDS011;10709;49.006;12.100;2023-04-25T08:56:01;3.10;;;2.43;;
21101;SDS011;10709;49.006;12.100;2023-04-25T08:58:28;3.13;;;2.53;;
21101;SDS011;10709;49.006;12.100;2023-04-25T09:00:55;4.93;;;2.43;;
21101;SDS011;10709;49.006;12.100;2023-04-25T09:03:21;3.10;;;2.57;;
21101;SDS011;10709;49.006;12.100;2023-04-25T09:05:48;3.87;;;2.80;;
21101;SDS011;10709;49.006;12.100;2023-04-25T09:08:16;3.30;;;2.80;;
21101;SDS011;10709;49.006;12.100;2023-04-25T09:10:43;6.10;;;3.17;;
21101;SDS011;10709;49.006;12.100;2023-04-25T09:13:10;3.73;;;2.80;;
21101;SDS011;10709;49.006;12.100;2023-04-25T09:15:46;3.63;;;2.30;;
21101;SDS011;10709;49.006;12.100;2023-04-25T09:20:56;2.60;;;2.40;;
21101;SDS011;10709;49.006;12.100;2023-04-25T09:23:44;3.23;;;2.10;;
21101;SDS011;10709;49.006;12.100;2023-04-25T09:26:16;3.93;;;2.40;;
21101;SDS011;10709;49.006;12.100;2023-04-25T09:28:45;2.67;;;2.47;;
21101;SDS011;10709;49.006;12.100;2023-04-25T09:31:21;3.10;;;2.70;;
21101;SDS011;10709;49.006;12.100;2023-04-25T09:33:52;3.40;;;3.07;;
21101;SDS011;10709;49.006;12.100;2023-04-25T09:36:26;4.20;;;3.20;;
21101;SDS011;10709;49.006;12.100;2023-04-25T09:38:53;3.57;;;3.10;;
21101;SDS011;10709;49.006;12.100;2023-04-25T09:41:23;5.40;;;2.90;;
21101;SDS011;10709;49.006;12.100;2023-04-25T09:43:50;2.50;;;2.30;;
21101;SDS011;10709;49.006;12.100;2023-04-25T09:46:17;2.57;;;1.50;;
21101;SDS011;10709;49.006;12.100;2023-04-25T09:48:50;1.77;;;1.43;;
21101;SDS011;10709;49.006;12.100;2023-04-25T09:51:17;2.30;;;2.10;;
21101;SDS011;10709;49.006;12.100;2023-04-25T09:53:44;2.60;;;2.30;;
21101;SDS011;10709;49.006;12.100;2023-04-25T09:56:12;3.43;;;2.63;;
21101;SDS011;10709;49.006;12.100;2023-04-25T09:58:40;3.27;;;2.50;;
21101;SDS011;10709;49.006;12.100;2023-04-25T10:01:07;4.30;;;2.90;;
21101;SDS011;10709;49.006;12.100;2023-04-25T10:03:37;4.77;;;3.47;;
21101;SDS011;10709;49.006;12.100;2023-04-25T10:06:12;5.13;;;3.30;;
21101;SDS011;10709;49.006;12.100;2023-04-25T10:08:44;4.97;;;3.27;;
21101;SDS011;10709;49.006;12.100;2023-04-25T10:11:17;3.63;;;2.87;;
21101;SDS011;10709;49.006;12.100;2023-04-25T10:13:44;3.47;;;2.50;;
21101;SDS011;10709;49.006;12.100;2023-04-25T10:19:15;3.00;;;2.20;;
21101;SDS011;10709;49.006;12.100;2023-04-25T10:21:44;6.47;;;3.30;;
21101;SDS011;10709;49.006;12.100;2023-04-25T10:24:16;2.93;;;2.40;;
21101;SDS011;10709;49.006;12.100;2023-04-25T10:26:43;2.43;;;2.13;;
21101;SDS011;10709;49.006;12.100;2023-04-25T10:29:09;2.73;;;2.10;;
21101;SDS011;10709;49.006;12.100;2023-04-25T10:31:44;2.77;;;2.17;;
21101;SDS011;10709;49.006;12.100;2023-04-25T10:34:12;5.87;;;3.30;;
21101;SDS011;10709;49.006;12.100;2023-04-25T10:36:39;4.17;;;3.73;;
21101;SDS011;10709;49.006;12.100;2023-04-25T10:39:06;5.20;;;4.27;;
21101;SDS011;10709;49.006;12.100;2023-04-25T10:41:47;4.40;;;3.83;;
21101;SDS011;10709;49.006;12.100;2023-04-25T10:44:19;4.97;;;4.13;;
21101;SDS011;10709;49.006;12.100;2023-04-25T10:46:45;6.20;;;5.27;;
21101;SDS011;10709;49.006;12.100;2023-04-25T10:49:28;5.37;;;4.80;;
21101;SDS011;10709;49.006;12.100;2023-04-25T10:54:42;5.70;;;4.13;;
21101;SDS011;10709;49.006;12.100;2023-04-25T10:57:28;7.50;;;4.67;;
21101;SDS011;10709;49.006;12.100;2023-04-25T11:00:06;5.07;;;4.57;;
21101;SDS011;10709;49.006;12.100;2023-04-25T11:05:09;7.27;;;4.80;;
21101;SDS011;10709;49.006;12.100;2023-04-25T11:07:44;6.27;;;4.70;;
21101;SDS011;10709;49.006;12.100;2023-04-25T11:10:32;4.97;;;3.73;;
21101;SDS011;10709;49.006;12.100;2023-04-25T11:13:03;3.60;;;2.93;;
21101;SDS011;10709;49.006;12.100;2023-04-25T11:15:30;3.37;;;2.77;;
21101;SDS011;10709;49.006;12.100;2023-04-25T11:17:57;3.40;;;2.33;;
21101;SDS011;10709;49.006;12.100;2023-04-25T11:20:25;2.30;;;2.10;;
21101;SDS011;10709;49.006;12.100;2023-04-25T11:22:52;2.20;;;2.00;;
21101;SDS011;10709;49.006;12.100;2023-04-25T11:25:19;2.57;;;2.00;;
21101;SDS011;10709;49.006;12.100;2023-04-25T11:27:53;1.63;;;1.50;;
21101;SDS011;10709;49.006;12.100;2023-04-25T11:30:24;2.13;;;1.50;;
21101;SDS011;10709;49.006;12.100;2023-04-25T11:32:52;2.53;;;1.53;;
21101;SDS011;10709;49.006;12.100;2023-04-25T11:35:20;2.50;;;1.77;;
21101;SDS011;10709;49.006;12.100;2023-04-25T11:37:49;3.03;;;2.23;;
21101;SDS011;10709;49.006;12.100;2023-04-25T11:40:16;2.20;;;1.80;;
21101;SDS011;10709;49.006;12.100;2023-04-25T11:42:43;2.93;;;1.93;;
21101;SDS011;10709;49.006;12.100;2023-04-25T11:45:11;2.80;;;1.80;;
21101;SDS011;10709;49.006;12.100;2023-04-25T11:47:38;2.17;;;1.97;;
21101;SDS011;10709;49.006;12.100;2023-04-25T11:50:06;3.90;;;2.30;;
21101;SDS011;10709;49.006;12.100;2023-04-25T11:52:43;3.33;;;2.30;;
21101;SDS011;10709;49.006;12.100;2023-04-25T11:55:14;3.57;;;2.30;;
21101;SDS011;10709;49.006;12.100;2023-04-25T11:57:43;3.27;;;2.50;;
21101;SDS011;10709;49.006;12.100;2023-04-25T12:02:44;4.20;;;2.27;;
21101;SDS011;10709;49.006;12.100;2023-04-25T12:05:17;2.30;;;2.10;;
21101;SDS011;10709;49.006;12.100;2023-04-25T12:07:46;2.90;;;2.17;;
21101;SDS011;10709;49.006;12.100;2023-04-25T12:10:14;3.63;;;2.30;;
21101;SDS011;10709;49.006;12.100;2023-04-25T12:12:43;3.40;;;2.13;;
21101;SDS011;10709;49.006;12.100;2023-04-25T12:15:15;3.53;;;1.87;;
21101;SDS011;10709;49.006;12.100;2023-04-25T12:17:46;3.23;;;2.10;;
21101;SDS011;10709;49.006;12.100;2023-04-25T12:20:14;3.30;;;1.90;;
21101;SDS011;10709;49.006;12.100;2023-04-25T12:22:43;2.47;;;1.93;;
21101;SDS011;10709;49.006;12.100;2023-04-25T12:25:13;2.10;;;1.90;;
21101;SDS011;10709;49.006;12.100;2023-04-25T12:31:00;3.03;;;2.30;;
21101;SDS011;10709;49.006;12.100;2023-04-25T12:33:29;3.03;;;2.20;;
21101;SDS011;10709;49.006;12.100;2023-04-25T12:35:57;3.73;;;2.27;;
21101;SDS011;10709;49.006;12.100;2023-04-25T12:38:24;3.30;;;2.03;;
21101;SDS011;10709;49.006;12.100;2023-04-25T12:40:53;3.10;;;2.40;;
21101;SDS011;10709;49.006;12.100;2023-04-25T12:43:20;3.07;;;2.00;;
21101;SDS011;10709;49.006;12.100;2023-04-25T12:45:51;3.00;;;2.10;;
21101;SDS011;10709;49.006;12.100;2023-04-25T12:48:19;2.87;;;1.87;;
21101;SDS011;10709;49.006;12.100;2023-04-25T12:50:46;4.80;;;2.23;;
21101;SDS011;10709;49.006;12.100;2023-04-25T12:53:15;2.90;;;2.07;;
21101;SDS011;10709;49.006;12.100;2023-04-25T12:55:43;3.93;;;2.20;;
21101;SDS011;10709;49.006;12.100;2023-04-25T12:58:12;2.70;;;2.10;;
21101;SDS011;10709;49.006;12.100;2023-04-25T13:00:43;2.63;;;2.30;;
21101;SDS011;10709;49.006;12.100;2023-04-25T13:03:10;3.00;;;2.00;;
21101;SDS011;10709;49.006;12.100;2023-04-25T13:05:37;2.47;;;1.93;;
21101;SDS011;10709;49.006;12.100;2023-04-25T13:08:04;2.97;;;2.23;;
21101;SDS011;10709;49.006;12.100;2023-04-25T13:10:31;5.00;;;2.03;;
21101;SDS011;10709;49.006;12.100;2023-04-25T13:12:59;3.60;;;2.20;;
21101;SDS011;10709;49.006;12.100;2023-04-25T13:15:27;2.17;;;1.90;;
21101;SDS011;10709;49.006;12.100;2023-04-25T13:17:54;3.40;;;2.13;;
21101;SDS011;10709;49.006;12.100;2023-04-25T13:20:20;2.50;;;2.30;;
21101;SDS011;10709;49.006;12.100;2023-04-25T13:22:48;4.20;;;2.30;;
21101;SDS011;10709;49.006;12.100;2023-04-25T13:25:14;2.67;;;1.87;;
21101;SDS011;10709;49.006;12.100;2023-04-25T13:27:42;2.40;;;2.00;;
21101;SDS011;10709;49.006;12.100;2023-04-25T13:30:10;2.80;;;1.57;;
21101;SDS011;10709;49.006;12.100;2023-04-25T13:32:37;3.73;;;2.10;;
21101;SDS011;10709;49.006;12.100;2023-04-25T13:35:05;3.50;;;2.23;;
21101;SDS011;10709;49.006;12.100;2023-04-25T13:37:36;3.77;;;2.10;;
21101;SDS011;10709;49.006;12.100;2023-04-25T13:40:05;4.13;;;2.50;;
21101;SDS011;10709;49.006;12.100;2023-04-25T13:42:37;3.40;;;2.50;;
21101;SDS011;10709;49.006;12.100;2023-04-25T13:45:04;7.53;;;2.77;;
21101;SDS011;10709;49.006;12.100;2023-04-25T13:47:31;3.57;;;3.03;;
21101;SDS011;10709;49.006;12.100;2023-04-25T13:49:58;6.30;;;3.20;;
21101;SDS011;10709;49.006;12.100;2023-04-25T13:52:25;4.20;;;3.13;;
21101;SDS011;10709;49.006;12.100;2023-04-25T13:54:52;3.73;;;3.00;;
21101;SDS011;10709;49.006;12.100;2023-04-25T13:57:18;6.47;;;2.90;;
21101;SDS011;10709;49.006;12.100;2023-04-25T13:59:45;5.13;;;2.60;;
21101;SDS011;10709;49.006;12.100;2023-04-25T14:02:12;4.63;;;2.90;;
21101;SDS011;10709;49.006;12.100;2023-04-25T14:04:39;3.47;;;2.60;;
21101;SDS011;10709;49.006;12.100;2023-04-25T14:07:06;4.33;;;2.40;;
21101;SDS011;10709;49.006;12.100;2023-04-25T14:09:32;2.37;;;2.17;;
21101;SDS011;10709;49.006;12.100;2023-04-25T14:11:59;3.77;;;2.03;;
21101;SDS011;10709;49.006;12.100;2023-04-25T14:14:26;4.37;;;2.60;;
21101;SDS011;10709;49.006;12.100;2023-04-25T14:16:53;4.93;;;2.30;;
21101;SDS011;10709;49.006;12.100;2023-04-25T14:19:20;3.00;;;2.00;;
21101;SDS011;10709;49.006;12.100;2023-04-25T14:21:47;4.33;;;2.10;;
21101;SDS011;10709;49.006;12.100;2023-04-25T14:24:14;4.43;;;1.90;;
21101;SDS011;10709;49.006;12.100;2023-04-25T14:26:42;2.60;;;1.90;;
21101;SDS011;10709;49.006;12.100;2023-04-25T14:29:09;3.60;;;2.10;;
21101;SDS011;10709;49.006;12.100;2023-04-25T14:31:38;2.70;;;1.90;;
21101;SDS011;10709;49.006;12.100;2023-04-25T14:34:06;1.97;;;1.53;;
21101;SDS011;10709;49.006;12.100;2023-04-25T14:36:33;3.17;;;2.00;;
21101;SDS011;10709;49.006;12.100;2023-04-25T14:39:01;3.53;;;1.83;;
21101;SDS011;10709;49.006;12.100;2023-04-25T14:41:28;2.33;;;1.60;;
21101;SDS011;10709;49.006;12.100;2023-04-25T14:43:54;2.33;;;1.67;;
21101;SDS011;10709;49.006;12.100;2023-04-25T14:46:22;2.83;;;1.70;;
21101;SDS011;10709;49.006;12.100;2023-04-25T14:48:49;2.73;;;1.70;;
21101;SDS011;10709;49.006;12.100;2023-04-25T14:51:17;2.40;;;1.53;;
21101;SDS011;10709;49.006;12.100;2023-04-25T14:53:43;2.13;;;1.70;;
21101;SDS011;10709;49.006;12.100;2023-04-25T14:56:10;2.30;;;1.53;;
21101;SDS011;10709;49.006;12.100;2023-04-25T14:58:36;4.10;;;1.50;;
21101;SDS011;10709;49.006;12.100;2023-04-25T15:01:05;1.70;;;1.40;;